createdAt,value
2017-11-17T00:00:26.142Z,10.0
2017-11-17T00:01:27.747Z,9.9
2017-11-17T00:02:29.360Z,9.9
2017-11-17T00:03:30.969Z,10.1
2017-11-17T00:04:32.582Z,9.9
2017-11-17T00:05:34.196Z,10.0
2017-11-17T00:06:35.797Z,10.0
2017-11-17T00:07:37.405Z,10.0
2017-11-17T00:08:39.015Z,10.0
2017-11-17T00:09:40.621Z,10.0
2017-11-17T00:10:42.230Z,10.0
2017-11-17T00:11:43.846Z,10.1
2017-11-17T00:12:45.452Z,10.1
2017-11-17T00:13:47.070Z,9.9
2017-11-17T00:14:48.671Z,10.0
2017-11-17T00:15:50.285Z,10.0
2017-11-17T00:16:51.894Z,10.0
2017-11-17T00:17:54.825Z,10.1
2017-11-17T00:18:56.422Z,10.0
2017-11-17T00:19:58.037Z,10.1
2017-11-17T00:20:59.646Z,10.1
2017-11-17T00:22:01.255Z,10.1
2017-11-17T00:23:02.872Z,10.0
2017-11-17T00:24:04.476Z,10.0
2017-11-17T00:25:06.089Z,10.1
2017-11-17T00:26:07.703Z,10.1
2017-11-17T00:27:09.314Z,10.0
2017-11-17T00:28:10.921Z,10.0
2017-11-17T00:29:12.528Z,10.1
2017-11-17T00:30:14.138Z,10.0
2017-11-17T00:31:15.752Z,10.1
2017-11-17T00:32:17.364Z,10.1
2017-11-17T00:33:18.972Z,10.1
2017-11-17T00:34:20.581Z,10.1
2017-11-17T00:35:22.197Z,10.1
2017-11-17T00:36:23.808Z,10.1
2017-11-17T00:37:25.413Z,10.1
2017-11-17T00:38:27.023Z,10.0
2017-11-17T00:39:28.631Z,10.1
2017-11-17T00:40:30.247Z,10.1
2017-11-17T00:41:31.852Z,10.1
2017-11-17T00:42:33.462Z,10.1
2017-11-17T00:43:35.078Z,10.1
2017-11-17T00:44:36.687Z,10.0
2017-11-17T00:45:38.298Z,9.9
2017-11-17T00:46:39.906Z,10.0
2017-11-17T00:47:41.519Z,10.1
2017-11-17T00:48:43.128Z,10.1
2017-11-17T00:49:44.743Z,10.0
2017-11-17T00:50:46.346Z,10.1
2017-11-17T00:51:47.964Z,10.0
2017-11-17T00:52:49.568Z,10.0
2017-11-17T00:53:51.184Z,10.0
2017-11-17T00:54:52.794Z,10.0
2017-11-17T00:55:54.407Z,9.9
2017-11-17T00:56:56.021Z,9.9
2017-11-17T00:57:57.627Z,9.9
2017-11-17T00:58:59.239Z,9.9
2017-11-17T01:00:00.850Z,9.9
2017-11-17T01:01:02.454Z,9.9
2017-11-17T01:02:04.070Z,9.9
2017-11-17T01:03:05.680Z,9.9
2017-11-17T01:04:07.284Z,9.9
2017-11-17T01:05:08.895Z,9.9
2017-11-17T01:06:10.498Z,9.9
2017-11-17T01:07:12.109Z,9.9
2017-11-17T01:08:13.714Z,9.9
2017-11-17T01:09:15.329Z,9.9
2017-11-17T01:10:16.940Z,9.9
2017-11-17T01:11:18.550Z,9.8
2017-11-17T01:12:20.159Z,9.8
2017-11-17T01:13:21.764Z,9.9
2017-11-17T01:14:23.373Z,9.9
2017-11-17T01:15:24.982Z,9.8
2017-11-17T01:16:26.589Z,9.8
2017-11-17T01:17:28.205Z,9.7
2017-11-17T01:18:29.807Z,9.7
2017-11-17T01:19:31.415Z,9.7
2017-11-17T01:20:33.026Z,9.7
2017-11-17T01:21:34.635Z,9.8
2017-11-17T01:22:36.241Z,9.8
2017-11-17T01:23:37.849Z,9.7
2017-11-17T01:24:39.462Z,9.7
2017-11-17T01:25:41.071Z,9.8
2017-11-17T01:26:42.678Z,9.7
2017-11-17T01:27:44.285Z,9.8
2017-11-17T01:28:45.900Z,9.7
2017-11-17T01:29:47.505Z,9.7
2017-11-17T01:30:49.121Z,9.7
2017-11-17T01:31:50.733Z,9.7
2017-11-17T01:32:52.341Z,9.7
2017-11-17T01:33:53.947Z,9.8
2017-11-17T01:34:55.553Z,9.7
2017-11-17T01:35:57.172Z,9.7
2017-11-17T01:36:58.770Z,9.7
2017-11-17T01:38:00.383Z,9.7
2017-11-17T01:39:01.991Z,9.8
2017-11-17T01:40:03.601Z,9.7
2017-11-17T01:41:05.204Z,9.7
2017-11-17T01:42:06.814Z,9.7
2017-11-17T01:43:08.426Z,9.8
2017-11-17T01:44:10.037Z,9.8
2017-11-17T01:45:11.644Z,9.7
2017-11-17T01:46:13.257Z,9.8
2017-11-17T01:47:14.859Z,9.7
2017-11-17T01:48:16.466Z,9.8
2017-11-17T01:49:18.075Z,9.7
2017-11-17T01:50:19.688Z,9.7
2017-11-17T01:51:21.302Z,9.7
2017-11-17T01:52:22.912Z,9.8
2017-11-17T01:53:24.519Z,9.8
2017-11-17T01:54:26.126Z,9.8
2017-11-17T01:55:27.739Z,9.8
2017-11-17T01:56:29.349Z,9.7
2017-11-17T01:57:30.956Z,9.7
2017-11-17T01:58:32.563Z,9.8
2017-11-17T01:59:34.181Z,9.7
2017-11-17T02:00:35.987Z,9.7
2017-11-17T02:01:37.593Z,9.8
2017-11-17T02:02:39.203Z,9.8
2017-11-17T02:03:40.811Z,9.7
2017-11-17T02:04:42.428Z,9.7
2017-11-17T02:05:44.032Z,9.8
2017-11-17T02:06:45.642Z,9.7
2017-11-17T02:07:47.254Z,9.8
2017-11-17T02:08:48.859Z,9.8
2017-11-17T02:09:50.473Z,9.8
2017-11-17T02:10:52.081Z,9.7
2017-11-17T02:11:53.685Z,9.7
2017-11-17T02:12:55.294Z,9.9
2017-11-17T02:13:56.907Z,9.9
2017-11-17T02:14:58.521Z,9.8
2017-11-17T02:16:00.127Z,9.8
2017-11-17T02:17:01.733Z,9.8
2017-11-17T02:18:03.350Z,9.9
2017-11-17T02:19:04.958Z,9.9
2017-11-17T02:20:06.564Z,9.9
2017-11-17T02:21:08.174Z,9.9
2017-11-17T02:22:09.786Z,9.9
2017-11-17T02:23:11.395Z,9.9
2017-11-17T02:24:12.998Z,9.9
2017-11-17T02:25:14.604Z,9.9
2017-11-17T02:26:16.217Z,9.9
2017-11-17T02:27:17.821Z,9.9
2017-11-17T02:28:19.435Z,9.8
2017-11-17T02:29:21.052Z,9.8
2017-11-17T02:30:22.654Z,9.8
2017-11-17T02:31:24.266Z,9.8
2017-11-17T02:32:25.869Z,9.8
2017-11-17T02:33:27.486Z,9.7
2017-11-17T02:34:29.090Z,9.7
2017-11-17T02:35:30.708Z,9.7
2017-11-17T02:36:32.313Z,9.7
2017-11-17T02:37:33.923Z,9.7
2017-11-17T02:38:35.526Z,9.8
2017-11-17T02:39:37.139Z,9.8
2017-11-17T02:40:38.745Z,9.7
2017-11-17T02:41:40.356Z,9.7
2017-11-17T02:42:41.962Z,9.7
2017-11-17T02:43:43.570Z,9.7
2017-11-17T02:44:45.185Z,9.8
2017-11-17T02:45:46.797Z,9.7
2017-11-17T02:46:48.401Z,9.8
2017-11-17T02:47:50.012Z,9.7
2017-11-17T02:48:51.627Z,9.6
2017-11-17T02:49:53.237Z,9.7
2017-11-17T02:50:54.843Z,9.8
2017-11-17T02:51:56.450Z,9.7
2017-11-17T02:52:58.062Z,9.7
2017-11-17T02:53:59.671Z,9.7
2017-11-17T02:55:01.276Z,9.7
2017-11-17T02:56:02.884Z,9.7
2017-11-17T02:57:04.496Z,9.7
2017-11-17T02:58:06.104Z,9.7
2017-11-17T02:59:07.716Z,9.7
2017-11-17T03:00:09.325Z,9.7
2017-11-17T03:01:10.930Z,9.7
2017-11-17T03:02:12.539Z,9.7
2017-11-17T03:03:14.150Z,9.7
2017-11-17T03:04:15.761Z,9.7
2017-11-17T03:05:17.365Z,9.7
2017-11-17T03:06:18.976Z,9.7
2017-11-17T03:07:20.581Z,9.7
2017-11-17T03:08:22.185Z,9.7
2017-11-17T03:09:23.804Z,9.8
2017-11-17T03:10:25.408Z,9.7
2017-11-17T03:11:27.035Z,9.7
2017-11-17T03:12:28.623Z,9.7
2017-11-17T03:13:30.229Z,9.8
2017-11-17T03:14:31.839Z,9.7
2017-11-17T03:15:33.442Z,9.7
2017-11-17T03:16:35.050Z,9.7
2017-11-17T03:17:36.663Z,9.7
2017-11-17T03:18:38.273Z,9.7
2017-11-17T03:19:39.876Z,9.8
2017-11-17T03:20:41.481Z,9.7
2017-11-17T03:21:43.094Z,9.7
2017-11-17T03:22:44.697Z,9.7
2017-11-17T03:23:46.309Z,9.8
2017-11-17T03:24:47.914Z,9.7
2017-11-17T03:25:49.526Z,9.7
2017-11-17T03:26:51.132Z,9.7
2017-11-17T03:27:52.738Z,9.7
2017-11-17T03:28:54.342Z,9.8
2017-11-17T03:29:55.953Z,9.7
2017-11-17T03:30:57.566Z,9.8
2017-11-17T03:31:59.169Z,9.8
2017-11-17T03:33:00.775Z,9.8
2017-11-17T03:34:02.393Z,9.8
2017-11-17T03:35:03.996Z,9.8
2017-11-17T03:36:05.600Z,9.9
2017-11-17T03:37:07.206Z,9.9
2017-11-17T03:38:08.818Z,9.8
2017-11-17T03:39:10.428Z,9.9
2017-11-17T03:40:12.032Z,9.8
2017-11-17T03:41:13.646Z,9.9
2017-11-17T03:42:15.443Z,9.8
2017-11-17T03:43:17.132Z,9.9
2017-11-17T03:44:18.768Z,9.9
2017-11-17T03:45:20.447Z,9.8
2017-11-17T03:46:22.070Z,9.8
2017-11-17T03:47:23.726Z,9.9
2017-11-17T03:48:25.372Z,9.9
2017-11-17T03:49:26.982Z,9.8
2017-11-17T03:50:28.634Z,9.9
2017-11-17T03:51:30.240Z,9.9
2017-11-17T03:52:31.864Z,9.9
2017-11-17T03:53:33.461Z,9.8
2017-11-17T03:54:35.070Z,9.8
2017-11-17T03:55:36.681Z,9.9
2017-11-17T03:56:38.350Z,9.7
2017-11-17T03:57:39.968Z,9.7
2017-11-17T03:58:41.581Z,9.7
2017-11-17T03:59:43.191Z,9.7
2017-11-17T04:00:44.797Z,9.7
2017-11-17T04:01:46.404Z,9.7
2017-11-17T04:02:48.019Z,9.7
2017-11-17T04:03:49.630Z,9.8
2017-11-17T04:04:51.233Z,9.7
2017-11-17T04:05:52.834Z,9.8
2017-11-17T04:06:54.449Z,9.8
2017-11-17T04:07:56.057Z,9.7
2017-11-17T04:08:57.677Z,9.7
2017-11-17T04:09:59.293Z,9.8
2017-11-17T04:11:00.908Z,9.8
2017-11-17T04:12:02.509Z,9.7
2017-11-17T04:13:04.119Z,9.8
2017-11-17T04:14:05.728Z,9.7
2017-11-17T04:15:07.327Z,9.7
2017-11-17T04:16:08.939Z,9.7
2017-11-17T04:17:10.551Z,9.7
2017-11-17T04:18:12.161Z,9.7
2017-11-17T04:19:13.761Z,9.7
2017-11-17T04:20:15.377Z,9.7
2017-11-17T04:21:16.978Z,9.7
2017-11-17T04:22:18.591Z,9.7
2017-11-17T04:23:20.193Z,9.7
2017-11-17T04:24:21.833Z,9.7
2017-11-17T04:25:23.437Z,9.7
2017-11-17T04:26:25.044Z,9.7
2017-11-17T04:27:26.828Z,9.6
2017-11-17T04:28:29.088Z,9.6
2017-11-17T04:29:30.701Z,9.5
2017-11-17T04:30:32.309Z,9.5
2017-11-17T04:31:34.147Z,9.5
2017-11-17T04:32:35.757Z,9.5
2017-11-17T04:33:37.363Z,9.5
2017-11-17T04:34:38.967Z,9.5
2017-11-17T04:35:40.578Z,9.5
2017-11-17T04:36:42.187Z,9.5
2017-11-17T04:37:43.793Z,9.5
2017-11-17T04:38:45.399Z,9.5
2017-11-17T04:39:47.010Z,9.5
2017-11-17T04:40:48.619Z,9.5
2017-11-17T04:41:50.231Z,9.4
2017-11-17T04:42:51.849Z,9.5
2017-11-17T04:43:53.455Z,9.4
2017-11-17T04:44:55.193Z,9.4
2017-11-17T04:45:56.798Z,9.5
2017-11-17T04:46:58.406Z,9.3
2017-11-17T04:48:00.011Z,9.3
2017-11-17T04:49:01.621Z,9.4
2017-11-17T04:50:03.223Z,9.3
2017-11-17T04:51:04.841Z,9.3
2017-11-17T04:52:06.553Z,9.3
2017-11-17T04:53:08.167Z,9.2
2017-11-17T04:54:09.785Z,9.2
2017-11-17T04:55:11.389Z,9.3
2017-11-17T04:56:16.997Z,9.3
2017-11-17T04:57:21.497Z,9.2
2017-11-17T04:58:23.148Z,9.3
2017-11-17T04:59:24.739Z,9.3
2017-11-17T05:00:26.350Z,9.2
2017-11-17T05:01:27.951Z,9.2
2017-11-17T05:02:29.561Z,9.2
2017-11-17T05:03:31.170Z,9.3
2017-11-17T05:04:32.774Z,9.2
2017-11-17T05:05:34.377Z,9.2
2017-11-17T05:06:35.991Z,9.2
2017-11-17T05:07:37.600Z,9.1
2017-11-17T05:08:39.200Z,9.1
2017-11-17T05:09:40.811Z,9.0
2017-11-17T05:10:42.430Z,9.1
2017-11-17T05:11:44.037Z,9.0
2017-11-17T05:12:45.646Z,9.0
2017-11-17T05:13:47.248Z,9.0
2017-11-17T05:14:49.148Z,9.0
2017-11-17T05:15:50.747Z,9.0
2017-11-17T05:16:52.355Z,9.0
2017-11-17T05:17:53.958Z,9.0
2017-11-17T05:18:55.578Z,8.9
2017-11-17T05:19:57.222Z,9.0
2017-11-17T05:20:58.825Z,9.0
2017-11-17T05:22:00.639Z,8.9
2017-11-17T05:23:02.259Z,8.8
2017-11-17T05:24:03.866Z,8.8
2017-11-17T05:25:05.468Z,8.8
2017-11-17T05:26:07.122Z,8.9
2017-11-17T05:27:10.201Z,8.8
2017-11-17T05:28:11.866Z,8.9
2017-11-17T05:29:13.477Z,8.8
2017-11-17T05:30:15.311Z,8.8
2017-11-17T05:31:16.924Z,8.9
2017-11-17T05:32:18.534Z,8.8
2017-11-17T05:33:20.144Z,8.8
2017-11-17T05:34:21.747Z,8.7
2017-11-17T05:35:23.357Z,8.8
2017-11-17T05:36:24.962Z,8.8
2017-11-17T05:37:26.573Z,8.8
2017-11-17T05:38:28.175Z,8.8
2017-11-17T05:39:29.786Z,8.8
2017-11-17T05:40:31.389Z,8.8
2017-11-17T05:41:33.002Z,8.9
2017-11-17T05:42:34.607Z,8.9
2017-11-17T05:43:36.225Z,9.0
2017-11-17T05:44:37.825Z,9.0
2017-11-17T05:45:39.427Z,9.0
2017-11-17T05:46:41.030Z,8.9
2017-11-17T05:47:42.640Z,8.9
2017-11-17T05:48:44.248Z,8.8
2017-11-17T05:49:45.852Z,8.8
2017-11-17T05:50:47.465Z,8.8
2017-11-17T05:51:49.065Z,9.0
2017-11-17T05:52:50.678Z,9.0
2017-11-17T05:53:52.282Z,9.0
2017-11-17T05:54:53.890Z,9.0
2017-11-17T05:55:55.493Z,8.9
2017-11-17T05:56:57.108Z,9.0
2017-11-17T05:57:58.710Z,9.0
2017-11-17T05:59:00.321Z,8.9
2017-11-17T06:00:01.930Z,9.0
2017-11-17T06:01:03.539Z,8.9
2017-11-17T06:02:05.141Z,9.0
2017-11-17T06:03:06.753Z,9.0
2017-11-17T06:04:08.357Z,9.0
2017-11-17T06:05:09.969Z,9.0
2017-11-17T06:06:11.576Z,9.0
2017-11-17T06:07:13.179Z,9.0
2017-11-17T06:08:14.788Z,8.9
2017-11-17T06:09:16.403Z,8.9
2017-11-17T06:10:18.000Z,8.9
2017-11-17T06:11:19.608Z,8.9
2017-11-17T06:12:21.221Z,9.0
2017-11-17T06:13:22.828Z,9.0
2017-11-17T06:14:24.430Z,8.8
2017-11-17T06:15:26.040Z,9.0
2017-11-17T06:16:27.643Z,8.9
2017-11-17T06:17:29.254Z,8.9
2017-11-17T06:18:30.857Z,8.9
2017-11-17T06:19:32.465Z,8.8
2017-11-17T06:20:34.075Z,8.8
2017-11-17T06:21:35.684Z,8.7
2017-11-17T06:22:37.286Z,8.7
2017-11-17T06:23:38.892Z,8.7
2017-11-17T06:24:40.503Z,8.8
2017-11-17T06:25:42.110Z,8.7
2017-11-17T06:26:43.721Z,8.7
2017-11-17T06:27:45.321Z,8.7
2017-11-17T06:28:46.931Z,8.6
2017-11-17T06:29:48.534Z,8.7
2017-11-17T06:30:50.145Z,8.6
2017-11-17T06:31:51.757Z,8.6
2017-11-17T06:32:53.362Z,8.5
2017-11-17T06:33:54.969Z,8.6
2017-11-17T06:34:56.589Z,8.5
2017-11-17T06:35:58.181Z,8.5
2017-11-17T06:36:59.792Z,8.5
2017-11-17T06:38:01.397Z,8.4
2017-11-17T06:39:03.007Z,8.3
2017-11-17T06:40:04.616Z,8.3
2017-11-17T06:41:06.223Z,8.4
2017-11-17T06:42:07.837Z,8.3
2017-11-17T06:43:09.439Z,8.2
2017-11-17T06:44:11.053Z,8.2
2017-11-17T06:45:12.657Z,8.1
2017-11-17T06:46:14.274Z,8.0
2017-11-17T06:47:15.881Z,8.1
2017-11-17T06:48:17.496Z,8.0
2017-11-17T06:49:19.104Z,7.9
2017-11-17T06:50:20.713Z,7.9
2017-11-17T06:51:22.328Z,7.9
2017-11-17T06:52:23.940Z,7.9
2017-11-17T06:53:25.546Z,7.8
2017-11-17T06:54:27.165Z,7.9
2017-11-17T06:55:28.775Z,7.8
2017-11-17T06:56:30.380Z,7.9
2017-11-17T06:57:31.992Z,7.9
2017-11-17T06:58:33.603Z,7.8
2017-11-17T06:59:35.211Z,7.8
2017-11-17T07:00:36.823Z,7.8
2017-11-17T07:01:38.436Z,7.8
2017-11-17T07:02:40.051Z,7.8
2017-11-17T07:03:41.656Z,7.8
2017-11-17T07:04:43.261Z,7.7
2017-11-17T07:05:44.878Z,7.8
2017-11-17T07:06:46.485Z,7.8
2017-11-17T07:07:48.097Z,7.8
2017-11-17T07:08:49.705Z,7.8
2017-11-17T07:09:51.323Z,7.8
2017-11-17T07:10:52.924Z,7.9
2017-11-17T07:11:54.536Z,7.8
2017-11-17T07:12:56.149Z,7.8
2017-11-17T07:13:57.756Z,7.9
2017-11-17T07:14:59.362Z,7.8
2017-11-17T07:16:00.977Z,7.9
2017-11-17T07:17:02.602Z,7.9
2017-11-17T07:18:04.206Z,7.9
2017-11-17T07:19:05.813Z,7.8
2017-11-17T07:20:07.426Z,7.9
2017-11-17T07:21:09.038Z,7.9
2017-11-17T07:22:10.654Z,7.9
2017-11-17T07:23:12.267Z,7.9
2017-11-17T07:24:13.876Z,7.9
2017-11-17T07:25:15.489Z,7.9
2017-11-17T07:26:17.100Z,8.0
2017-11-17T07:27:18.714Z,7.9
2017-11-17T07:28:20.325Z,7.9
2017-11-17T07:29:21.946Z,7.9
2017-11-17T07:30:23.552Z,7.9
2017-11-17T07:31:25.169Z,7.9
2017-11-17T07:32:26.779Z,8.0
2017-11-17T07:33:28.396Z,8.1
2017-11-17T07:34:30.004Z,7.9
2017-11-17T07:35:31.620Z,8.0
2017-11-17T07:36:33.231Z,8.0
2017-11-17T07:37:34.846Z,8.0
2017-11-17T07:38:36.457Z,8.0
2017-11-17T07:39:38.067Z,8.0
2017-11-17T07:40:39.687Z,8.0
2017-11-17T07:41:41.298Z,8.1
2017-11-17T07:42:42.907Z,8.1
2017-11-17T07:43:44.518Z,8.1
2017-11-17T07:44:46.137Z,8.2
2017-11-17T07:45:47.751Z,8.1
2017-11-17T07:46:49.358Z,8.1
2017-11-17T07:47:50.971Z,8.1
2017-11-17T07:48:52.587Z,8.1
2017-11-17T07:49:54.198Z,8.2
2017-11-17T07:50:55.809Z,8.2
2017-11-17T07:51:57.422Z,8.2
2017-11-17T07:52:59.038Z,8.2
2017-11-17T07:54:00.651Z,8.2
2017-11-17T07:55:02.266Z,8.1
2017-11-17T07:56:03.870Z,8.3
2017-11-17T07:57:05.516Z,8.3
2017-11-17T07:58:07.095Z,8.4
2017-11-17T07:59:08.706Z,8.6
2017-11-17T08:00:10.319Z,8.6
2017-11-17T08:01:11.936Z,8.7
2017-11-17T08:02:13.547Z,8.8
2017-11-17T08:03:15.157Z,8.8
2017-11-17T08:04:16.769Z,8.9
2017-11-17T08:05:18.384Z,8.9
2017-11-17T08:06:20.003Z,9.0
2017-11-17T08:07:21.615Z,9.1
2017-11-17T08:08:23.226Z,9.0
2017-11-17T08:09:24.838Z,9.0
2017-11-17T08:10:26.448Z,9.0
2017-11-17T08:11:28.065Z,9.0
2017-11-17T08:12:29.676Z,9.0
2017-11-17T08:13:31.296Z,9.0
2017-11-17T08:14:32.907Z,9.0
2017-11-17T08:15:34.522Z,8.9
2017-11-17T08:16:36.133Z,8.9
2017-11-17T08:17:37.753Z,8.8
2017-11-17T08:18:39.359Z,8.7
2017-11-17T08:19:40.978Z,8.7
2017-11-17T08:20:42.588Z,8.8
2017-11-17T08:21:44.209Z,8.7
2017-11-17T08:22:45.819Z,8.7
2017-11-17T08:23:47.433Z,8.8
2017-11-17T08:24:49.045Z,8.7
2017-11-17T08:25:50.657Z,8.8
2017-11-17T08:26:52.274Z,8.9
2017-11-17T08:27:53.881Z,9.1
2017-11-17T08:28:55.500Z,9.3
2017-11-17T08:29:57.109Z,9.2
2017-11-17T08:30:58.725Z,9.2
2017-11-17T08:32:00.336Z,9.3
2017-11-17T08:33:01.954Z,9.5
2017-11-17T08:34:03.565Z,10.4
2017-11-17T08:35:05.182Z,11.0
2017-11-17T08:36:06.800Z,11.6
2017-11-17T08:37:08.413Z,12.5
2017-11-17T08:38:10.992Z,13.0
2017-11-17T08:39:12.664Z,13.7
2017-11-17T08:40:14.276Z,14.3
2017-11-17T08:41:15.891Z,14.8
2017-11-17T08:42:17.508Z,15.3
2017-11-17T08:43:19.122Z,15.7
2017-11-17T08:44:20.739Z,15.5
2017-11-17T08:45:22.357Z,15.5
2017-11-17T08:46:23.968Z,15.8
2017-11-17T08:47:26.358Z,16.3
2017-11-17T08:48:27.980Z,15.9
2017-11-17T08:49:29.593Z,16.0
2017-11-17T08:50:31.206Z,16.1
2017-11-17T08:51:32.826Z,15.7
2017-11-17T08:52:34.441Z,15.7
2017-11-17T08:53:36.052Z,15.2
2017-11-17T08:54:37.668Z,14.7
2017-11-17T08:55:39.282Z,14.5
2017-11-17T08:56:40.902Z,14.3
2017-11-17T08:57:42.527Z,14.2
2017-11-17T08:58:44.140Z,14.3
2017-11-17T08:59:45.748Z,14.3
2017-11-17T09:00:47.365Z,14.4
2017-11-17T09:01:48.985Z,14.5
2017-11-17T09:02:50.599Z,14.5
2017-11-17T09:03:52.211Z,14.5
2017-11-17T09:04:53.833Z,14.4
2017-11-17T09:05:55.451Z,14.5
2017-11-17T09:06:57.060Z,14.9
2017-11-17T09:07:58.680Z,15.1
2017-11-17T09:09:00.291Z,15.1
2017-11-17T09:10:01.906Z,15.2
2017-11-17T09:11:03.523Z,15.2
2017-11-17T09:12:05.145Z,15.2
2017-11-17T09:13:06.764Z,15.2
2017-11-17T09:14:08.378Z,15.2
2017-11-17T09:15:09.997Z,15.1
2017-11-17T09:16:11.610Z,15.3
2017-11-17T09:17:13.229Z,15.5
2017-11-17T09:18:14.845Z,15.4
2017-11-17T09:19:16.468Z,15.1
2017-11-17T09:20:18.076Z,14.9
2017-11-17T09:21:19.696Z,14.7
2017-11-17T09:22:21.311Z,14.5
2017-11-17T09:23:22.926Z,14.2
2017-11-17T09:24:24.543Z,13.9
2017-11-17T09:25:26.179Z,13.8
2017-11-17T09:26:27.789Z,13.6
2017-11-17T09:27:29.399Z,13.5
2017-11-17T09:28:31.017Z,13.4
2017-11-17T09:29:32.628Z,13.3
2017-11-17T09:30:34.250Z,13.0
2017-11-17T09:31:35.861Z,12.9
2017-11-17T09:32:37.482Z,12.9
2017-11-17T09:33:39.096Z,12.8
2017-11-17T09:34:40.715Z,12.7
2017-11-17T09:35:42.325Z,12.4
2017-11-17T09:36:43.946Z,12.5
2017-11-17T09:37:45.560Z,12.3
2017-11-17T09:38:47.179Z,12.1
2017-11-17T09:39:48.793Z,12.0
2017-11-17T09:40:50.413Z,11.9
2017-11-17T09:41:52.025Z,12.2
2017-11-17T09:42:53.645Z,12.5
2017-11-17T09:43:55.265Z,12.8
2017-11-17T09:44:56.886Z,13.4
2017-11-17T09:45:58.509Z,13.8
2017-11-17T09:47:00.133Z,14.3
2017-11-17T09:48:01.745Z,14.5
2017-11-17T09:49:03.360Z,14.5
2017-11-17T09:50:04.978Z,14.3
2017-11-17T09:51:06.599Z,14.5
2017-11-17T09:52:08.214Z,14.3
2017-11-17T09:53:09.823Z,14.9
2017-11-17T09:54:11.448Z,14.9
2017-11-17T09:55:13.068Z,15.0
2017-11-17T09:56:14.683Z,15.7
2017-11-17T09:57:16.295Z,16.3
2017-11-17T09:58:17.916Z,16.8
2017-11-17T09:59:19.542Z,16.6
2017-11-17T10:00:21.154Z,16.3
2017-11-17T10:01:22.772Z,16.0
2017-11-17T10:02:24.388Z,15.6
2017-11-17T10:03:26.006Z,15.8
2017-11-17T10:04:27.621Z,16.5
2017-11-17T10:05:29.240Z,17.0
2017-11-17T10:06:30.861Z,17.4
2017-11-17T10:07:32.481Z,17.7
2017-11-17T10:08:34.100Z,17.7
2017-11-17T10:09:35.712Z,17.5
2017-11-17T10:10:37.333Z,17.5
2017-11-17T10:11:38.950Z,17.2
2017-11-17T10:12:40.569Z,17.1
2017-11-17T10:13:42.181Z,17.0
2017-11-17T10:14:43.804Z,17.4
2017-11-17T10:15:45.425Z,17.1
2017-11-17T10:16:47.048Z,16.6
2017-11-17T10:17:48.656Z,16.2
2017-11-17T10:18:50.270Z,16.0
2017-11-17T10:19:51.892Z,15.8
2017-11-17T10:20:53.509Z,15.6
2017-11-17T10:21:55.125Z,15.4
2017-11-17T10:22:56.747Z,15.3
2017-11-17T10:23:58.365Z,15.7
2017-11-17T10:24:59.987Z,15.4
2017-11-17T10:26:01.596Z,15.5
2017-11-17T10:27:03.217Z,15.4
2017-11-17T10:28:04.830Z,15.0
2017-11-17T10:29:06.458Z,14.7
2017-11-17T10:30:08.070Z,14.5
2017-11-17T10:31:09.690Z,14.5
2017-11-17T10:32:11.303Z,14.4
2017-11-17T10:33:12.920Z,14.9
2017-11-17T10:34:14.534Z,14.8
2017-11-17T10:35:16.150Z,14.8
2017-11-17T10:36:17.769Z,14.8
2017-11-17T10:37:19.388Z,14.8
2017-11-17T10:38:21.009Z,14.6
2017-11-17T10:39:22.620Z,14.3
2017-11-17T10:40:24.235Z,14.1
2017-11-17T10:41:25.854Z,13.9
2017-11-17T10:42:27.471Z,13.7
2017-11-17T10:43:29.088Z,13.6
2017-11-17T10:44:30.701Z,13.4
2017-11-17T10:45:32.326Z,13.3
2017-11-17T10:46:33.943Z,13.1
2017-11-17T10:47:35.553Z,12.9
2017-11-17T10:48:37.169Z,12.8
2017-11-17T10:49:38.786Z,12.6
2017-11-17T10:50:40.410Z,12.5
2017-11-17T10:51:42.018Z,12.4
2017-11-17T10:52:43.632Z,12.3
2017-11-17T10:53:45.250Z,12.2
2017-11-17T10:54:46.861Z,12.1
2017-11-17T10:55:48.477Z,12.1
2017-11-17T10:56:50.093Z,12.3
2017-11-17T10:57:51.713Z,12.9
2017-11-17T10:58:53.328Z,13.5
2017-11-17T10:59:54.949Z,13.6
2017-11-17T11:00:56.558Z,13.4
2017-11-17T11:01:58.183Z,13.4
2017-11-17T11:02:59.835Z,14.1
2017-11-17T11:04:01.453Z,14.8
2017-11-17T11:05:03.077Z,15.3
2017-11-17T11:06:04.711Z,15.8
2017-11-17T11:07:06.325Z,16.4
2017-11-17T11:08:07.945Z,16.7
2017-11-17T11:09:09.560Z,17.2
2017-11-17T11:10:11.180Z,17.7
2017-11-17T11:11:12.803Z,18.2
2017-11-17T11:12:14.418Z,18.5
2017-11-17T11:13:16.044Z,18.7
2017-11-17T11:14:17.661Z,18.8
2017-11-17T11:15:19.283Z,18.7
2017-11-17T11:16:20.898Z,18.8
2017-11-17T11:17:22.518Z,18.7
2017-11-17T11:18:24.134Z,18.4
2017-11-17T11:19:25.758Z,18.5
2017-11-17T11:20:27.375Z,18.6
2017-11-17T11:21:29.004Z,18.9
2017-11-17T11:22:31.596Z,19.1
2017-11-17T11:23:33.218Z,19.2
2017-11-17T11:24:34.835Z,19.5
2017-11-17T11:25:36.463Z,19.4
2017-11-17T11:26:38.073Z,19.8
2017-11-17T11:27:39.700Z,20.0
2017-11-17T11:28:41.318Z,19.8
2017-11-17T11:29:42.941Z,19.7
2017-11-17T11:30:44.557Z,19.7
2017-11-17T11:31:46.180Z,19.6
2017-11-17T11:32:47.796Z,19.4
2017-11-17T11:33:49.413Z,18.8
2017-11-17T11:34:51.038Z,18.5
2017-11-17T11:35:52.659Z,18.2
2017-11-17T11:36:54.274Z,17.9
2017-11-17T11:37:55.889Z,17.7
2017-11-17T11:38:57.512Z,17.2
2017-11-17T11:39:59.131Z,17.0
2017-11-17T11:41:00.751Z,16.6
2017-11-17T11:42:02.371Z,16.4
2017-11-17T11:43:03.993Z,16.1
2017-11-17T11:44:05.612Z,16.0
2017-11-17T11:45:07.225Z,15.9
2017-11-17T11:46:08.842Z,15.7
2017-11-17T11:47:10.467Z,15.6
2017-11-17T11:48:12.087Z,16.0
2017-11-17T11:49:13.704Z,16.5
2017-11-17T11:50:15.809Z,17.0
2017-11-17T11:51:17.431Z,17.1
2017-11-17T11:52:19.048Z,17.3
2017-11-17T11:53:20.670Z,17.4
2017-11-17T11:54:22.291Z,17.4
2017-11-17T11:55:23.906Z,17.5
2017-11-17T11:56:25.524Z,17.8
2017-11-17T11:57:27.149Z,18.1
2017-11-17T11:58:28.773Z,18.4
2017-11-17T11:59:30.383Z,18.7
2017-11-17T12:00:31.997Z,18.8
2017-11-17T12:01:33.617Z,18.9
2017-11-17T12:02:35.234Z,19.2
2017-11-17T12:03:36.855Z,19.4
2017-11-17T12:04:38.469Z,19.5
2017-11-17T12:05:40.089Z,19.5
2017-11-17T12:06:41.704Z,19.5
2017-11-17T12:07:43.322Z,19.5
2017-11-17T12:08:44.939Z,19.4
2017-11-17T12:09:46.554Z,19.1
2017-11-17T12:10:48.173Z,18.8
2017-11-17T12:11:49.795Z,18.7
2017-11-17T12:12:51.416Z,18.6
2017-11-17T12:13:53.022Z,18.7
2017-11-17T12:14:54.639Z,18.7
2017-11-17T12:15:56.259Z,18.8
2017-11-17T12:16:57.877Z,18.8
2017-11-17T12:17:59.491Z,18.8
2017-11-17T12:19:01.115Z,19.0
2017-11-17T12:20:02.728Z,18.9
2017-11-17T12:21:04.345Z,19.0
2017-11-17T12:22:05.960Z,19.0
2017-11-17T12:23:07.581Z,18.9
2017-11-17T12:24:09.191Z,18.7
2017-11-17T12:25:10.814Z,18.8
2017-11-17T12:26:12.436Z,18.8
2017-11-17T12:27:14.046Z,18.7
2017-11-17T12:28:15.669Z,18.6
2017-11-17T12:29:17.280Z,18.6
2017-11-17T12:30:18.903Z,18.6
2017-11-17T12:31:20.517Z,18.6
2017-11-17T12:32:22.140Z,18.5
2017-11-17T12:33:23.760Z,18.4
2017-11-17T12:34:25.373Z,18.2
2017-11-17T12:35:26.986Z,18.0
2017-11-17T12:36:28.636Z,17.8
2017-11-17T12:37:30.219Z,17.7
2017-11-17T12:38:31.840Z,17.6
2017-11-17T12:39:33.456Z,17.3
2017-11-17T12:40:35.082Z,17.3
2017-11-17T12:41:36.695Z,17.3
2017-11-17T12:42:38.308Z,17.2
2017-11-17T12:43:39.930Z,17.1
2017-11-17T12:44:41.541Z,17.1
2017-11-17T12:45:43.160Z,17.1
2017-11-17T12:46:44.780Z,17.1
2017-11-17T12:47:46.400Z,16.9
2017-11-17T12:48:48.013Z,16.8
2017-11-17T12:49:49.628Z,16.8
2017-11-17T12:50:51.252Z,16.6
2017-11-17T12:51:52.865Z,16.6
2017-11-17T12:52:54.477Z,16.7
2017-11-17T12:53:56.092Z,16.6
2017-11-17T12:54:57.717Z,16.5
2017-11-17T12:55:59.336Z,16.4
2017-11-17T12:57:00.946Z,16.4
2017-11-17T12:58:02.560Z,16.4
2017-11-17T12:59:04.179Z,16.4
2017-11-17T13:00:05.801Z,16.3
2017-11-17T13:01:07.421Z,16.3
2017-11-17T13:02:09.033Z,16.1
2017-11-17T13:03:10.645Z,15.8
2017-11-17T13:04:12.267Z,15.8
2017-11-17T13:05:13.877Z,15.6
2017-11-17T13:06:15.498Z,15.5
2017-11-17T13:07:17.113Z,15.4
2017-11-17T13:08:18.729Z,15.2
2017-11-17T13:09:20.352Z,15.2
2017-11-17T13:10:21.962Z,15.1
2017-11-17T13:11:23.581Z,14.9
2017-11-17T13:12:25.194Z,14.8
2017-11-17T13:13:26.816Z,14.6
2017-11-17T13:14:28.429Z,14.6
2017-11-17T13:15:30.046Z,14.4
2017-11-17T13:16:31.661Z,14.2
2017-11-17T13:17:33.278Z,14.1
2017-11-17T13:18:34.896Z,14.0
2017-11-17T13:19:36.505Z,13.8
2017-11-17T13:20:38.121Z,13.6
2017-11-17T13:21:39.741Z,13.5
2017-11-17T13:22:41.361Z,13.4
2017-11-17T13:23:42.978Z,13.3
2017-11-17T13:24:44.617Z,13.2
2017-11-17T13:25:46.209Z,13.1
2017-11-17T13:26:47.826Z,13.1
2017-11-17T13:27:49.439Z,13.1
2017-11-17T13:28:51.068Z,13.2
2017-11-17T13:29:52.678Z,13.2
2017-11-17T13:30:54.296Z,13.2
2017-11-17T13:31:55.906Z,13.1
2017-11-17T13:32:57.522Z,13.1
2017-11-17T13:33:59.142Z,13.0
2017-11-17T13:35:00.765Z,13.0
2017-11-17T13:36:02.373Z,13.0
2017-11-17T13:37:03.995Z,12.9
2017-11-17T13:38:05.605Z,12.8
2017-11-17T13:39:07.217Z,12.6
2017-11-17T13:40:08.844Z,12.6
2017-11-17T13:41:10.453Z,12.5
2017-11-17T13:42:12.064Z,12.3
2017-11-17T13:43:13.677Z,12.4
2017-11-17T13:44:15.298Z,12.3
2017-11-17T13:45:16.917Z,12.3
2017-11-17T13:46:18.528Z,12.2
2017-11-17T13:47:20.138Z,12.1
2017-11-17T13:48:21.757Z,12.1
2017-11-17T13:49:23.374Z,12.1
2017-11-17T13:50:24.993Z,12.1
2017-11-17T13:51:26.604Z,12.0
2017-11-17T13:52:28.219Z,12.0
2017-11-17T13:53:29.839Z,12.0
2017-11-17T13:54:31.448Z,12.0
2017-11-17T13:55:33.061Z,12.1